sensor_id;sensor_type;location;lat;lon;timestamp;temperature;humidity
76104;HTU21D;64831;44.870;37.336;2024-01-27T00:01:44;4.22;78.00
76104;HTU21D;64831;44.870;37.336;2024-01-27T00:04:10;4.23;78.27
76104;HTU21D;64831;44.870;37.336;2024-01-27T00:06:36;4.24;78.27
76104;HTU21D;64831;44.870;37.336;2024-01-27T00:09:02;4.29;78.21
76104;HTU21D;64831;44.870;37.336;2024-01-27T00:11:28;4.30;78.19
76104;HTU21D;64831;44.870;37.336;2024-01-27T00:13:54;4.32;78.20
76104;HTU21D;64831;44.870;37.336;2024-01-27T00:16:20;4.33;78.23
76104;HTU21D;64831;44.870;37.336;2024-01-27T00:18:46;4.36;78.18
76104;HTU21D;64831;44.870;37.336;2024-01-27T00:21:12;4.39;78.07
76104;HTU21D;64831;44.870;37.336;2024-01-27T00:23:37;4.41;77.96
76104;HTU21D;64831;44.870;37.336;2024-01-27T00:26:04;4.41;77.73
76104;HTU21D;64831;44.870;37.336;2024-01-27T00:28:30;4.39;77.59
76104;HTU21D;64831;44.870;37.336;2024-01-27T00:30:56;4.39;77.54
76104;HTU21D;64831;44.870;37.336;2024-01-27T00:33:22;4.41;77.56
76104;HTU21D;64831;44.870;37.336;2024-01-27T00:35:48;4.38;77.69
76104;HTU21D;64831;44.870;37.336;2024-01-27T00:38:14;4.41;77.63
76104;HTU21D;64831;44.870;37.336;2024-01-27T00:40:40;4.39;77.51
76104;HTU21D;64831;44.870;37.336;2024-01-27T00:43:06;4.39;77.44
76104;HTU21D;64831;44.870;37.336;2024-01-27T00:45:32;4.36;77.42
76104;HTU21D;64831;44.870;37.336;2024-01-27T00:47:58;4.37;77.33
76104;HTU21D;64831;44.870;37.336;2024-01-27T00:50:25;4.37;77.19
76104;HTU21D;64831;44.870;37.336;2024-01-27T00:52:51;4.37;77.18
76104;HTU21D;64831;44.870;37.336;2024-01-27T00:55:17;4.42;77.16
76104;HTU21D;64831;44.870;37.336;2024-01-27T00:57:43;4.42;77.11
76104;HTU21D;64831;44.870;37.336;2024-01-27T01:00:10;4.45;77.14
76104;HTU21D;64831;44.870;37.336;2024-01-27T01:02:36;4.47;77.26
76104;HTU21D;64831;44.870;37.336;2024-01-27T01:05:03;4.48;77.34
76104;HTU21D;64831;44.870;37.336;2024-01-27T01:07:32;4.48;77.18
76104;HTU21D;64831;44.870;37.336;2024-01-27T01:09:59;4.47;77.20
76104;HTU21D;64831;44.870;37.336;2024-01-27T01:12:26;4.49;77.24
76104;HTU21D;64831;44.870;37.336;2024-01-27T01:14:52;4.49;77.33
76104;HTU21D;64831;44.870;37.336;2024-01-27T01:17:18;4.49;77.42
76104;HTU21D;64831;44.870;37.336;2024-01-27T01:19:44;4.49;77.34
76104;HTU21D;64831;44.870;37.336;2024-01-27T01:22:10;4.49;77.35
76104;HTU21D;64831;44.870;37.336;2024-01-27T01:24:36;4.48;77.31
76104;HTU21D;64831;44.870;37.336;2024-01-27T01:27:02;4.47;77.24
76104;HTU21D;64831;44.870;37.336;2024-01-27T01:29:28;4.45;77.43
76104;HTU21D;64831;44.870;37.336;2024-01-27T01:31:54;4.44;77.54
76104;HTU21D;64831;44.870;37.336;2024-01-27T01:34:20;4.43;77.76
76104;HTU21D;64831;44.870;37.336;2024-01-27T01:36:46;4.44;77.81
76104;HTU21D;64831;44.870;37.336;2024-01-27T01:39:13;4.46;77.75
76104;HTU21D;64831;44.870;37.336;2024-01-27T01:41:40;4.49;77.61
76104;HTU21D;64831;44.870;37.336;2024-01-27T01:44:07;4.49;77.41
76104;HTU21D;64831;44.870;37.336;2024-01-27T01:46:33;4.51;77.31
76104;HTU21D;64831;44.870;37.336;2024-01-27T01:49:00;4.52;77.37
76104;HTU21D;64831;44.870;37.336;2024-01-27T01:51:27;4.56;77.39
76104;HTU21D;64831;44.870;37.336;2024-01-27T01:53:57;4.59;77.42
76104;HTU21D;64831;44.870;37.336;2024-01-27T01:56:24;4.60;77.59
76104;HTU21D;64831;44.870;37.336;2024-01-27T01:58:51;4.64;77.39
76104;HTU21D;64831;44.870;37.336;2024-01-27T02:01:20;4.66;77.28
76104;HTU21D;64831;44.870;37.336;2024-01-27T02:06:19;4.64;77.65
76104;HTU21D;64831;44.870;37.336;2024-01-27T02:08:44;4.63;77.49
76104;HTU21D;64831;44.870;37.336;2024-01-27T02:11:10;4.63;77.53
76104;HTU21D;64831;44.870;37.336;2024-01-27T02:13:36;4.65;77.50
76104;HTU21D;64831;44.870;37.336;2024-01-27T02:16:02;4.64;77.54
76104;HTU21D;64831;44.870;37.336;2024-01-27T02:18:28;4.66;77.59
76104;HTU21D;64831;44.870;37.336;2024-01-27T02:20:54;4.66;77.55
76104;HTU21D;64831;44.870;37.336;2024-01-27T02:23:20;4.64;77.56
76104;HTU21D;64831;44.870;37.336;2024-01-27T02:25:46;4.63;77.54
76104;HTU21D;64831;44.870;37.336;2024-01-27T02:28:12;4.61;77.60
76104;HTU21D;64831;44.870;37.336;2024-01-27T02:30:39;4.61;77.51
76104;HTU21D;64831;44.870;37.336;2024-01-27T02:33:05;4.61;77.33
76104;HTU21D;64831;44.870;37.336;2024-01-27T02:35:31;4.62;77.20
76104;HTU21D;64831;44.870;37.336;2024-01-27T02:37:57;4.62;77.34
76104;HTU21D;64831;44.870;37.336;2024-01-27T02:40:23;4.63;77.43
76104;HTU21D;64831;44.870;37.336;2024-01-27T02:42:49;4.62;77.48
76104;HTU21D;64831;44.870;37.336;2024-01-27T02:45:15;4.63;77.48
76104;HTU21D;64831;44.870;37.336;2024-01-27T02:47:41;4.64;77.39
76104;HTU21D;64831;44.870;37.336;2024-01-27T02:50:07;4.64;77.35
76104;HTU21D;64831;44.870;37.336;2024-01-27T02:52:34;4.64;77.34
76104;HTU21D;64831;44.870;37.336;2024-01-27T02:55:00;4.66;77.40
76104;HTU21D;64831;44.870;37.336;2024-01-27T02:57:26;4.66;77.47
76104;HTU21D;64831;44.870;37.336;2024-01-27T02:59:52;4.68;77.41
76104;HTU21D;64831;44.870;37.336;2024-01-27T03:02:18;4.68;77.22
76104;HTU21D;64831;44.870;37.336;2024-01-27T03:04:44;4.65;77.08
76104;HTU21D;64831;44.870;37.336;2024-01-27T03:07:10;4.65;77.02
76104;HTU21D;64831;44.870;37.336;2024-01-27T03:09:36;4.62;76.81
76104;HTU21D;64831;44.870;37.336;2024-01-27T03:12:02;4.57;76.79
76104;HTU21D;64831;44.870;37.336;2024-01-27T03:14:29;4.49;76.75
76104;HTU21D;64831;44.870;37.336;2024-01-27T03:16:54;4.45;76.84
76104;HTU21D;64831;44.870;37.336;2024-01-27T03:19:21;4.39;76.95
76104;HTU21D;64831;44.870;37.336;2024-01-27T03:21:46;4.37;77.08
76104;HTU21D;64831;44.870;37.336;2024-01-27T03:24:12;4.39;77.11
76104;HTU21D;64831;44.870;37.336;2024-01-27T03:26:38;4.42;77.05
76104;HTU21D;64831;44.870;37.336;2024-01-27T03:29:04;4.46;77.07
76104;HTU21D;64831;44.870;37.336;2024-01-27T03:31:33;4.49;77.06
76104;HTU21D;64831;44.870;37.336;2024-01-27T03:34:00;4.51;77.03
76104;HTU21D;64831;44.870;37.336;2024-01-27T03:36:26;4.53;76.95
76104;HTU21D;64831;44.870;37.336;2024-01-27T03:38:52;4.53;77.00
76104;HTU21D;64831;44.870;37.336;2024-01-27T03:41:19;4.51;76.84
76104;HTU21D;64831;44.870;37.336;2024-01-27T03:43:44;4.48;76.78
76104;HTU21D;64831;44.870;37.336;2024-01-27T03:46:10;4.45;76.63
76104;HTU21D;64831;44.870;37.336;2024-01-27T03:48:36;4.43;76.55
76104;HTU21D;64831;44.870;37.336;2024-01-27T03:51:03;4.37;76.50
76104;HTU21D;64831;44.870;37.336;2024-01-27T03:53:29;4.29;76.53
76104;HTU21D;64831;44.870;37.336;2024-01-27T03:55:55;4.22;76.44
76104;HTU21D;64831;44.870;37.336;2024-01-27T03:58:24;4.17;76.51
76104;HTU21D;64831;44.870;37.336;2024-01-27T04:00:50;4.10;76.83
76104;HTU21D;64831;44.870;37.336;2024-01-27T04:03:17;4.06;76.91
76104;HTU21D;64831;44.870;37.336;2024-01-27T04:05:43;4.03;76.77
76104;HTU21D;64831;44.870;37.336;2024-01-27T04:08:09;3.97;76.71
76104;HTU21D;64831;44.870;37.336;2024-01-27T04:10:36;3.93;76.66
76104;HTU21D;64831;44.870;37.336;2024-01-27T04:13:03;3.87;76.90
76104;HTU21D;64831;44.870;37.336;2024-01-27T04:15:29;3.83;77.24
76104;HTU21D;64831;44.870;37.336;2024-01-27T04:17:55;3.79;77.31
76104;HTU21D;64831;44.870;37.336;2024-01-27T04:20:21;3.75;77.31
76104;HTU21D;64831;44.870;37.336;2024-01-27T04:22:47;3.74;77.20
76104;HTU21D;64831;44.870;37.336;2024-01-27T04:25:13;3.73;77.09
76104;HTU21D;64831;44.870;37.336;2024-01-27T04:27:41;3.73;77.10
76104;HTU21D;64831;44.870;37.336;2024-01-27T04:30:08;3.70;77.16
76104;HTU21D;64831;44.870;37.336;2024-01-27T04:32:35;3.70;77.15
76104;HTU21D;64831;44.870;37.336;2024-01-27T04:35:01;3.70;77.44
76104;HTU21D;64831;44.870;37.336;2024-01-27T04:37:28;3.73;77.56
76104;HTU21D;64831;44.870;37.336;2024-01-27T04:39:54;3.74;77.76
76104;HTU21D;64831;44.870;37.336;2024-01-27T04:42:20;3.78;77.85
76104;HTU21D;64831;44.870;37.336;2024-01-27T04:44:46;3.80;77.72
76104;HTU21D;64831;44.870;37.336;2024-01-27T04:47:12;3.79;77.72
76104;HTU21D;64831;44.870;37.336;2024-01-27T04:49:38;3.78;77.64
76104;HTU21D;64831;44.870;37.336;2024-01-27T04:52:04;3.75;77.83
76104;HTU21D;64831;44.870;37.336;2024-01-27T04:54:31;3.76;77.60
76104;HTU21D;64831;44.870;37.336;2024-01-27T04:56:57;3.75;77.44
76104;HTU21D;64831;44.870;37.336;2024-01-27T04:59:23;3.76;77.53
76104;HTU21D;64831;44.870;37.336;2024-01-27T05:01:50;3.76;77.73
76104;HTU21D;64831;44.870;37.336;2024-01-27T05:04:16;3.77;77.58
76104;HTU21D;64831;44.870;37.336;2024-01-27T05:06:46;3.83;77.51
76104;HTU21D;64831;44.870;37.336;2024-01-27T05:09:12;3.84;77.46
76104;HTU21D;64831;44.870;37.336;2024-01-27T05:11:38;3.86;77.56
76104;HTU21D;64831;44.870;37.336;2024-01-27T05:14:04;3.95;78.73
76104;HTU21D;64831;44.870;37.336;2024-01-27T05:16:30;4.18;80.16
76104;HTU21D;64831;44.870;37.336;2024-01-27T05:18:55;4.33;80.30
76104;HTU21D;64831;44.870;37.336;2024-01-27T05:21:21;4.42;79.89
76104;HTU21D;64831;44.870;37.336;2024-01-27T05:23:48;4.53;79.83
76104;HTU21D;64831;44.870;37.336;2024-01-27T05:26:13;4.63;79.71
76104;HTU21D;64831;44.870;37.336;2024-01-27T05:28:39;4.76;79.75
76104;HTU21D;64831;44.870;37.336;2024-01-27T05:31:09;4.97;80.36
76104;HTU21D;64831;44.870;37.336;2024-01-27T05:33:35;5.20;80.41
76104;HTU21D;64831;44.870;37.336;2024-01-27T05:36:02;5.50;80.17
76104;HTU21D;64831;44.870;37.336;2024-01-27T05:38:28;6.09;80.27
76104;HTU21D;64831;44.870;37.336;2024-01-27T05:40:55;6.71;79.62
76104;HTU21D;64831;44.870;37.336;2024-01-27T05:43:21;6.93;76.07
76104;HTU21D;64831;44.870;37.336;2024-01-27T05:45:48;6.84;74.49
76104;HTU21D;64831;44.870;37.336;2024-01-27T05:48:14;6.60;73.30
76104;HTU21D;64831;44.870;37.336;2024-01-27T05:50:42;6.33;72.94
76104;HTU21D;64831;44.870;37.336;2024-01-27T05:53:09;6.07;73.37
76104;HTU21D;64831;44.870;37.336;2024-01-27T05:55:34;5.84;73.63
76104;HTU21D;64831;44.870;37.336;2024-01-27T05:58:00;5.61;73.94
76104;HTU21D;64831;44.870;37.336;2024-01-27T06:00:27;5.41;74.38
76104;HTU21D;64831;44.870;37.336;2024-01-27T06:02:52;5.25;74.76
76104;HTU21D;64831;44.870;37.336;2024-01-27T06:05:18;5.10;75.15
76104;HTU21D;64831;44.870;37.336;2024-01-27T06:07:45;4.96;75.61
76104;HTU21D;64831;44.870;37.336;2024-01-27T06:10:13;4.86;76.10
76104;HTU21D;64831;44.870;37.336;2024-01-27T06:12:40;4.79;76.42
76104;HTU21D;64831;44.870;37.336;2024-01-27T06:15:06;4.76;76.74
76104;HTU21D;64831;44.870;37.336;2024-01-27T06:17:34;4.75;76.96
76104;HTU21D;64831;44.870;37.336;2024-01-27T06:20:00;4.72;77.08
76104;HTU21D;64831;44.870;37.336;2024-01-27T06:22:26;4.73;77.25
76104;HTU21D;64831;44.870;37.336;2024-01-27T06:24:52;4.71;77.35
76104;HTU21D;64831;44.870;37.336;2024-01-27T06:27:18;4.68;77.22
76104;HTU21D;64831;44.870;37.336;2024-01-27T06:29:44;4.68;77.23
76104;HTU21D;64831;44.870;37.336;2024-01-27T06:32:10;4.65;77.44
76104;HTU21D;64831;44.870;37.336;2024-01-27T06:34:36;4.67;77.36
76104;HTU21D;64831;44.870;37.336;2024-01-27T06:37:02;4.65;77.53
76104;HTU21D;64831;44.870;37.336;2024-01-27T06:39:27;4.64;77.53
76104;HTU21D;64831;44.870;37.336;2024-01-27T06:41:55;4.64;77.49
76104;HTU21D;64831;44.870;37.336;2024-01-27T06:44:20;4.64;77.60
76104;HTU21D;64831;44.870;37.336;2024-01-27T06:46:46;4.66;77.84
76104;HTU21D;64831;44.870;37.336;2024-01-27T06:49:18;4.68;77.83
76104;HTU21D;64831;44.870;37.336;2024-01-27T06:51:44;4.74;77.92
76104;HTU21D;64831;44.870;37.336;2024-01-27T06:54:10;4.78;77.87
76104;HTU21D;64831;44.870;37.336;2024-01-27T06:56:35;4.83;77.70
76104;HTU21D;64831;44.870;37.336;2024-01-27T06:59:02;4.87;77.65
76104;HTU21D;64831;44.870;37.336;2024-01-27T07:01:28;4.91;77.63
76104;HTU21D;64831;44.870;37.336;2024-01-27T07:03:54;4.95;77.76
76104;HTU21D;64831;44.870;37.336;2024-01-27T07:06:20;4.97;77.78
76104;HTU21D;64831;44.870;37.336;2024-01-27T07:08:46;5.02;77.76
76104;HTU21D;64831;44.870;37.336;2024-01-27T07:11:12;5.05;77.89
76104;HTU21D;64831;44.870;37.336;2024-01-27T07:13:38;5.05;77.83
76104;HTU21D;64831;44.870;37.336;2024-01-27T07:16:05;5.07;77.77
76104;HTU21D;64831;44.870;37.336;2024-01-27T07:18:31;5.07;77.90
76104;HTU21D;64831;44.870;37.336;2024-01-27T07:20:56;5.10;77.90
76104;HTU21D;64831;44.870;37.336;2024-01-27T07:23:25;5.15;78.00
76104;HTU21D;64831;44.870;37.336;2024-01-27T07:25:50;5.21;77.97
76104;HTU21D;64831;44.870;37.336;2024-01-27T07:28:16;5.24;78.06
76104;HTU21D;64831;44.870;37.336;2024-01-27T07:30:44;5.30;77.96
76104;HTU21D;64831;44.870;37.336;2024-01-27T07:33:10;5.34;77.92
76104;HTU21D;64831;44.870;37.336;2024-01-27T07:35:36;5.36;77.79
76104;HTU21D;64831;44.870;37.336;2024-01-27T07:38:02;5.42;77.68
76104;HTU21D;64831;44.870;37.336;2024-01-27T07:40:28;5.48;77.75
76104;HTU21D;64831;44.870;37.336;2024-01-27T07:42:54;5.48;77.75
76104;HTU21D;64831;44.870;37.336;2024-01-27T07:45:20;5.51;77.72
76104;HTU21D;64831;44.870;37.336;2024-01-27T07:47:46;5.52;77.53
76104;HTU21D;64831;44.870;37.336;2024-01-27T07:50:12;5.54;77.59
76104;HTU21D;64831;44.870;37.336;2024-01-27T07:52:38;5.53;77.69
76104;HTU21D;64831;44.870;37.336;2024-01-27T07:55:04;5.52;77.49
76104;HTU21D;64831;44.870;37.336;2024-01-27T07:57:30;5.53;77.24
76104;HTU21D;64831;44.870;37.336;2024-01-27T07:59:56;5.52;77.56
76104;HTU21D;64831;44.870;37.336;2024-01-27T08:02:22;5.57;78.21
76104;HTU21D;64831;44.870;37.336;2024-01-27T08:04:47;5.69;78.16
76104;HTU21D;64831;44.870;37.336;2024-01-27T08:07:14;5.77;77.80
76104;HTU21D;64831;44.870;37.336;2024-01-27T08:09:41;5.81;77.35
76104;HTU21D;64831;44.870;37.336;2024-01-27T08:12:08;5.81;77.02
76104;HTU21D;64831;44.870;37.336;2024-01-27T08:14:34;5.79;76.69
76104;HTU21D;64831;44.870;37.336;2024-01-27T08:17:01;5.75;76.50
76104;HTU21D;64831;44.870;37.336;2024-01-27T08:19:29;5.71;76.41
76104;HTU21D;64831;44.870;37.336;2024-01-27T08:21:55;5.72;76.53
76104;HTU21D;64831;44.870;37.336;2024-01-27T08:24:20;5.71;76.50
76104;HTU21D;64831;44.870;37.336;2024-01-27T08:26:50;5.74;76.47
76104;HTU21D;64831;44.870;37.336;2024-01-27T08:29:16;5.80;76.52
76104;HTU21D;64831;44.870;37.336;2024-01-27T08:31:41;5.90;77.03
76104;HTU21D;64831;44.870;37.336;2024-01-27T08:34:07;6.04;77.03
76104;HTU21D;64831;44.870;37.336;2024-01-27T08:36:34;6.13;76.72
76104;HTU21D;64831;44.870;37.336;2024-01-27T08:39:00;6.16;76.21
76104;HTU21D;64831;44.870;37.336;2024-01-27T08:41:26;6.22;75.64
76104;HTU21D;64831;44.870;37.336;2024-01-27T08:43:53;6.20;75.05
76104;HTU21D;64831;44.870;37.336;2024-01-27T08:46:19;6.16;74.90
76104;HTU21D;64831;44.870;37.336;2024-01-27T08:48:48;6.15;74.80
76104;HTU21D;64831;44.870;37.336;2024-01-27T08:51:14;6.14;74.71
76104;HTU21D;64831;44.870;37.336;2024-01-27T08:53:41;6.11;74.55
76104;HTU21D;64831;44.870;37.336;2024-01-27T08:56:07;6.07;74.40
76104;HTU21D;64831;44.870;37.336;2024-01-27T08:58:33;6.08;74.44
76104;HTU21D;64831;44.870;37.336;2024-01-27T09:01:00;6.14;74.59
76104;HTU21D;64831;44.870;37.336;2024-01-27T09:03:31;6.23;74.48
76104;HTU21D;64831;44.870;37.336;2024-01-27T09:05:56;6.27;74.09
76104;HTU21D;64831;44.870;37.336;2024-01-27T09:08:23;6.34;74.04
76104;HTU21D;64831;44.870;37.336;2024-01-27T09:10:49;6.37;73.92
76104;HTU21D;64831;44.870;37.336;2024-01-27T09:13:14;6.41;73.54
76104;HTU21D;64831;44.870;37.336;2024-01-27T09:15:40;6.46;73.67
76104;HTU21D;64831;44.870;37.336;2024-01-27T09:18:06;6.54;73.64
76104;HTU21D;64831;44.870;37.336;2024-01-27T09:20:32;6.63;73.38
76104;HTU21D;64831;44.870;37.336;2024-01-27T09:22:58;6.73;73.19
76104;HTU21D;64831;44.870;37.336;2024-01-27T09:25:24;6.93;75.35
76104;HTU21D;64831;44.870;37.336;2024-01-27T09:27:52;7.24;75.40
76104;HTU21D;64831;44.870;37.336;2024-01-27T09:30:18;7.64;76.70
76104;HTU21D;64831;44.870;37.336;2024-01-27T09:32:44;8.00;74.31
76104;HTU21D;64831;44.870;37.336;2024-01-27T09:35:10;8.20;72.42
76104;HTU21D;64831;44.870;37.336;2024-01-27T09:37:36;8.39;72.06
76104;HTU21D;64831;44.870;37.336;2024-01-27T09:40:02;8.43;69.32
76104;HTU21D;64831;44.870;37.336;2024-01-27T09:42:33;8.41;69.36
76104;HTU21D;64831;44.870;37.336;2024-01-27T09:45:02;8.51;69.13
76104;HTU21D;64831;44.870;37.336;2024-01-27T09:47:28;8.71;70.10
76104;HTU21D;64831;44.870;37.336;2024-01-27T09:49:55;9.04;68.18
76104;HTU21D;64831;44.870;37.336;2024-01-27T09:52:20;9.07;67.33
76104;HTU21D;64831;44.870;37.336;2024-01-27T09:54:47;9.09;67.39
76104;HTU21D;64831;44.870;37.336;2024-01-27T09:57:14;9.31;68.46
76104;HTU21D;64831;44.870;37.336;2024-01-27T09:59:41;9.70;68.36
76104;HTU21D;64831;44.870;37.336;2024-01-27T10:02:11;10.10;66.96
76104;HTU21D;64831;44.870;37.336;2024-01-27T10:04:41;10.24;65.68
76104;HTU21D;64831;44.870;37.336;2024-01-27T10:07:07;10.14;63.97
76104;HTU21D;64831;44.870;37.336;2024-01-27T10:09:33;9.99;65.01
76104;HTU21D;64831;44.870;37.336;2024-01-27T10:12:01;10.27;64.40
76104;HTU21D;64831;44.870;37.336;2024-01-27T10:14:40;10.40;63.99
76104;HTU21D;64831;44.870;37.336;2024-01-27T10:17:10;10.39;61.92
76104;HTU21D;64831;44.870;37.336;2024-01-27T10:19:36;10.23;61.16
76104;HTU21D;64831;44.870;37.336;2024-01-27T10:22:02;10.12;62.39
76104;HTU21D;64831;44.870;37.336;2024-01-27T10:24:31;10.22;61.82
76104;HTU21D;64831;44.870;37.336;2024-01-27T10:27:03;10.24;61.05
76104;HTU21D;64831;44.870;37.336;2024-01-27T10:29:32;10.14;61.34
76104;HTU21D;64831;44.870;37.336;2024-01-27T10:32:08;10.00;60.25
76104;HTU21D;64831;44.870;37.336;2024-01-27T10:34:35;9.86;61.34
76104;HTU21D;64831;44.870;37.336;2024-01-27T10:37:27;9.76;61.42
76104;HTU21D;64831;44.870;37.336;2024-01-27T10:40:03;9.67;61.97
76104;HTU21D;64831;44.870;37.336;2024-01-27T10:42:30;9.62;61.95
76104;HTU21D;64831;44.870;37.336;2024-01-27T10:44:59;9.46;60.83
76104;HTU21D;64831;44.870;37.336;2024-01-27T10:47:30;9.36;62.29
76104;HTU21D;64831;44.870;37.336;2024-01-27T10:49:58;9.34;62.29
76104;HTU21D;64831;44.870;37.336;2024-01-27T10:52:31;9.31;62.70
76104;HTU21D;64831;44.870;37.336;2024-01-27T10:55:03;9.36;62.64
76104;HTU21D;64831;44.870;37.336;2024-01-27T10:57:33;9.42;62.46
76104;HTU21D;64831;44.870;37.336;2024-01-27T11:00:06;9.45;62.32
76104;HTU21D;64831;44.870;37.336;2024-01-27T11:02:34;9.24;60.48
76104;HTU21D;64831;44.870;37.336;2024-01-27T11:05:02;9.19;61.46
76104;HTU21D;64831;44.870;37.336;2024-01-27T11:07:32;8.90;60.22
76104;HTU21D;64831;44.870;37.336;2024-01-27T11:09:58;8.62;60.64
76104;HTU21D;64831;44.870;37.336;2024-01-27T11:12:25;8.34;61.31
76104;HTU21D;64831;44.870;37.336;2024-01-27T11:14:52;8.02;61.23
76104;HTU21D;64831;44.870;37.336;2024-01-27T11:17:21;7.88;62.09
76104;HTU21D;64831;44.870;37.336;2024-01-27T11:19:47;7.84;62.82
76104;HTU21D;64831;44.870;37.336;2024-01-27T11:22:27;7.83;62.83
76104;HTU21D;64831;44.870;37.336;2024-01-27T11:25:06;7.88;63.47
76104;HTU21D;64831;44.870;37.336;2024-01-27T11:27:32;8.00;63.78
76104;HTU21D;64831;44.870;37.336;2024-01-27T11:29:58;8.11;63.42
76104;HTU21D;64831;44.870;37.336;2024-01-27T11:32:26;8.19;63.36
76104;HTU21D;64831;44.870;37.336;2024-01-27T11:34:52;8.26;62.67
76104;HTU21D;64831;44.870;37.336;2024-01-27T11:37:18;8.20;61.57
76104;HTU21D;64831;44.870;37.336;2024-01-27T11:39:49;8.13;61.37
76104;HTU21D;64831;44.870;37.336;2024-01-27T11:42:16;8.08;62.28
76104;HTU21D;64831;44.870;37.336;2024-01-27T11:44:43;8.11;62.50
76104;HTU21D;64831;44.870;37.336;2024-01-27T11:47:15;8.22;63.11
76104;HTU21D;64831;44.870;37.336;2024-01-27T11:49:42;8.29;61.83
76104;HTU21D;64831;44.870;37.336;2024-01-27T11:52:08;8.29;61.88
76104;HTU21D;64831;44.870;37.336;2024-01-27T11:54:34;8.38;62.35
76104;HTU21D;64831;44.870;37.336;2024-01-27T11:57:01;8.42;61.77
76104;HTU21D;64831;44.870;37.336;2024-01-27T11:59:27;8.37;61.28
76104;HTU21D;64831;44.870;37.336;2024-01-27T12:01:53;8.26;60.74
76104;HTU21D;64831;44.870;37.336;2024-01-27T12:04:19;8.15;61.38
76104;HTU21D;64831;44.870;37.336;2024-01-27T12:06:47;8.12;62.08
76104;HTU21D;64831;44.870;37.336;2024-01-27T12:09:13;8.12;62.17
76104;HTU21D;64831;44.870;37.336;2024-01-27T12:11:39;8.09;61.92
76104;HTU21D;64831;44.870;37.336;2024-01-27T12:14:08;8.08;62.13
76104;HTU21D;64831;44.870;37.336;2024-01-27T12:16:34;8.00;61.36
76104;HTU21D;64831;44.870;37.336;2024-01-27T12:19:01;7.96;61.31
76104;HTU21D;64831;44.870;37.336;2024-01-27T12:21:27;7.86;61.13
76104;HTU21D;64831;44.870;37.336;2024-01-27T12:23:55;7.76;61.47
76104;HTU21D;64831;44.870;37.336;2024-01-27T12:26:25;7.67;61.57
76104;HTU21D;64831;44.870;37.336;2024-01-27T12:28:53;7.59;62.07
76104;HTU21D;64831;44.870;37.336;2024-01-27T12:31:19;7.60;62.57
76104;HTU21D;64831;44.870;37.336;2024-01-27T12:33:56;7.63;63.00
76104;HTU21D;64831;44.870;37.336;2024-01-27T12:36:22;7.59;62.70
76104;HTU21D;64831;44.870;37.336;2024-01-27T12:41:21;7.56;63.04
76104;HTU21D;64831;44.870;37.336;2024-01-27T12:43:47;7.49;63.11
76104;HTU21D;64831;44.870;37.336;2024-01-27T12:46:13;7.42;63.14
76104;HTU21D;64831;44.870;37.336;2024-01-27T12:48:40;7.31;63.11
76104;HTU21D;64831;44.870;37.336;2024-01-27T12:51:06;7.20;63.39
76104;HTU21D;64831;44.870;37.336;2024-01-27T12:53:32;7.15;63.73
76104;HTU21D;64831;44.870;37.336;2024-01-27T12:55:58;7.08;63.69
76104;HTU21D;64831;44.870;37.336;2024-01-27T12:58:24;7.04;64.00
76104;HTU21D;64831;44.870;37.336;2024-01-27T13:00:50;6.97;64.14
76104;HTU21D;64831;44.870;37.336;2024-01-27T13:03:16;6.91;64.21
76104;HTU21D;64831;44.870;37.336;2024-01-27T13:05:42;6.86;64.51
76104;HTU21D;64831;44.870;37.336;2024-01-27T13:08:08;6.83;64.78
76104;HTU21D;64831;44.870;37.336;2024-01-27T13:10:35;6.79;65.08
76104;HTU21D;64831;44.870;37.336;2024-01-27T13:13:01;6.75;65.23
76104;HTU21D;64831;44.870;37.336;2024-01-27T13:15:27;6.72;65.30
76104;HTU21D;64831;44.870;37.336;2024-01-27T13:17:53;6.67;65.47
76104;HTU21D;64831;44.870;37.336;2024-01-27T13:20:19;6.60;65.59
76104;HTU21D;64831;44.870;37.336;2024-01-27T13:22:45;6.54;65.77
76104;HTU21D;64831;44.870;37.336;2024-01-27T13:25:10;6.51;65.99
76104;HTU21D;64831;44.870;37.336;2024-01-27T13:27:37;6.49;65.98
76104;HTU21D;64831;44.870;37.336;2024-01-27T13:30:03;6.44;66.00
76104;HTU21D;64831;44.870;37.336;2024-01-27T13:32:29;6.37;66.23
76104;HTU21D;64831;44.870;37.336;2024-01-27T13:34:55;6.28;66.71
76104;HTU21D;64831;44.870;37.336;2024-01-27T13:37:21;6.24;67.00
76104;HTU21D;64831;44.870;37.336;2024-01-27T13:39:48;6.24;67.01
76104;HTU21D;64831;44.870;37.336;2024-01-27T13:42:13;6.24;67.12
76104;HTU21D;64831;44.870;37.336;2024-01-27T13:44:39;6.16;67.32
76104;HTU21D;64831;44.870;37.336;2024-01-27T13:47:06;6.13;67.50
76104;HTU21D;64831;44.870;37.336;2024-01-27T13:49:35;6.06;67.96
76104;HTU21D;64831;44.870;37.336;2024-01-27T13:52:02;6.00;68.17
76104;HTU21D;64831;44.870;37.336;2024-01-27T13:54:28;5.97;68.19
76104;HTU21D;64831;44.870;37.336;2024-01-27T13:56:54;5.94;68.60
76104;HTU21D;64831;44.870;37.336;2024-01-27T13:59:20;5.92;68.63
76104;HTU21D;64831;44.870;37.336;2024-01-27T14:01:47;5.91;68.38
76104;HTU21D;64831;44.870;37.336;2024-01-27T14:04:13;5.89;68.37
76104;HTU21D;64831;44.870;37.336;2024-01-27T14:06:39;5.89;68.34
76104;HTU21D;64831;44.870;37.336;2024-01-27T14:09:05;5.87;68.26
76104;HTU21D;64831;44.870;37.336;2024-01-27T14:11:43;5.83;68.20
76104;HTU21D;64831;44.870;37.336;2024-01-27T14:14:09;5.79;68.23
76104;HTU21D;64831;44.870;37.336;2024-01-27T14:16:35;5.75;68.48
76104;HTU21D;64831;44.870;37.336;2024-01-27T14:19:02;5.74;68.55
76104;HTU21D;64831;44.870;37.336;2024-01-27T14:21:27;5.70;68.69
76104;HTU21D;64831;44.870;37.336;2024-01-27T14:23:54;5.68;68.74
76104;HTU21D;64831;44.870;37.336;2024-01-27T14:26:28;5.65;68.86
76104;HTU21D;64831;44.870;37.336;2024-01-27T14:28:54;5.66;68.76
76104;HTU21D;64831;44.870;37.336;2024-01-27T14:31:21;5.65;68.78
76104;HTU21D;64831;44.870;37.336;2024-01-27T14:33:56;5.62;68.69
76104;HTU21D;64831;44.870;37.336;2024-01-27T14:36:26;5.55;68.71
76104;HTU21D;64831;44.870;37.336;2024-01-27T14:38:52;5.49;68.71
76104;HTU21D;64831;44.870;37.336;2024-01-27T14:41:18;5.43;68.78
76104;HTU21D;64831;44.870;37.336;2024-01-27T14:43:44;5.41;68.91
76104;HTU21D;64831;44.870;37.336;2024-01-27T14:46:10;5.34;68.71
76104;HTU21D;64831;44.870;37.336;2024-01-27T14:48:36;5.36;68.77
76104;HTU21D;64831;44.870;37.336;2024-01-27T14:51:02;5.35;68.82
76104;HTU21D;64831;44.870;37.336;2024-01-27T14:53:29;5.35;68.73
76104;HTU21D;64831;44.870;37.336;2024-01-27T14:55:55;5.33;68.62
76104;HTU21D;64831;44.870;37.336;2024-01-27T14:58:22;5.24;68.43
76104;HTU21D;64831;44.870;37.336;2024-01-27T15:00:49;5.23;68.65
76104;HTU21D;64831;44.870;37.336;2024-01-27T15:03:24;5.21;68.73
76104;HTU21D;64831;44.870;37.336;2024-01-27T15:05:50;5.18;68.88
76104;HTU21D;64831;44.870;37.336;2024-01-27T15:08:18;5.16;68.87
76104;HTU21D;64831;44.870;37.336;2024-01-27T15:10:44;5.12;68.95
76104;HTU21D;64831;44.870;37.336;2024-01-27T15:13:14;5.11;69.11
76104;HTU21D;64831;44.870;37.336;2024-01-27T15:15:42;5.09;69.14
76104;HTU21D;64831;44.870;37.336;2024-01-27T15:18:09;5.08;69.33